createdAt,value
2023-02-16T00:00:31.461Z,-1.29
2023-02-16T00:02:58.716Z,-1.43
2023-02-16T00:05:31.309Z,-1.36
2023-02-16T00:07:59.122Z,-1.37
2023-02-16T00:10:29.744Z,-1.46
2023-02-16T00:13:14.976Z,-1.58
2023-02-16T00:15:42.306Z,-1.49
2023-02-16T00:18:18.740Z,-1.49
2023-02-16T00:20:46.546Z,-1.52
2023-02-16T00:23:13.286Z,-1.53
2023-02-16T00:25:43.009Z,-1.53
2023-02-16T00:28:19.901Z,-1.49
2023-02-16T00:30:47.306Z,-1.46
2023-02-16T00:33:21.091Z,-1.60
2023-02-16T00:35:48.892Z,-1.78
2023-02-16T00:38:17.097Z,-2.05
2023-02-16T00:40:44.218Z,-2.02
2023-02-16T00:43:26.633Z,-1.83
2023-02-16T00:45:54.006Z,-1.90
2023-02-16T00:48:21.855Z,-1.73
2023-02-16T00:50:49.000Z,-1.63
2023-02-16T00:53:15.814Z,-1.55
2023-02-16T00:55:45.360Z,-1.56
2023-02-16T00:58:30.972Z,-1.57
2023-02-16T01:01:06.869Z,-1.67
2023-02-16T01:03:34.014Z,-1.78
2023-02-16T01:06:19.862Z,-1.64
2023-02-16T01:09:04.897Z,-1.51
2023-02-16T01:11:31.764Z,-1.61
2023-02-16T01:13:58.545Z,-1.71
2023-02-16T01:16:38.885Z,-1.67
2023-02-16T01:19:05.869Z,-1.72
2023-02-16T01:21:33.020Z,-1.84
2023-02-16T01:24:00.805Z,-1.80
2023-02-16T01:26:27.658Z,-1.73
2023-02-16T01:28:54.463Z,-1.73
2023-02-16T01:31:21.377Z,-1.67
2023-02-16T01:33:48.298Z,-1.89
2023-02-16T01:36:37.337Z,-1.81
2023-02-16T01:39:05.362Z,-1.90
2023-02-16T01:42:11.430Z,-1.92
2023-02-16T01:44:48.898Z,-1.91
2023-02-16T01:47:29.780Z,-1.92
2023-02-16T01:49:56.630Z,-2.12
2023-02-16T01:52:33.192Z,-2.26
2023-02-16T01:55:14.177Z,-2.26
2023-02-16T01:57:53.105Z,-2.29
2023-02-16T02:00:49.041Z,-2.10
2023-02-16T02:03:45.276Z,-2.10
2023-02-16T02:06:32.266Z,-2.19
2023-02-16T02:09:17.874Z,-2.38
2023-02-16T02:11:56.900Z,-2.24
2023-02-16T02:14:43.976Z,-2.15
2023-02-16T02:17:16.308Z,-2.12
2023-02-16T02:20:07.430Z,-2.16
2023-02-16T02:23:05.987Z,-2.12
2023-02-16T02:26:20.526Z,-2.14
2023-02-16T02:29:20.914Z,-2.23
2023-02-16T02:32:11.379Z,-2.14
2023-02-16T02:35:24.667Z,-2.33
2023-02-16T02:38:19.947Z,-2.36
2023-02-16T02:41:50.208Z,-2.29
2023-02-16T02:44:21.846Z,-2.40
2023-02-16T02:46:49.144Z,-2.41
2023-02-16T02:49:16.529Z,-2.36
2023-02-16T02:51:43.317Z,-2.32
2023-02-16T02:54:41.292Z,-2.33
2023-02-16T02:57:53.782Z,-2.26
2023-02-16T03:00:44.098Z,-2.37
2023-02-16T03:03:24.528Z,-2.37
2023-02-16T03:06:05.826Z,-2.48
2023-02-16T03:08:35.925Z,-2.35
2023-02-16T03:11:36.353Z,-2.39
2023-02-16T03:14:10.274Z,-2.41
2023-02-16T03:16:46.972Z,-2.37
2023-02-16T03:19:36.447Z,-2.41
2023-02-16T03:22:22.652Z,-2.60
2023-02-16T03:25:08.069Z,-2.60
2023-02-16T03:27:59.664Z,-2.54
2023-02-16T03:30:28.158Z,-2.65
2023-02-16T03:32:55.319Z,-2.72
2023-02-16T03:35:22.402Z,-2.76
2023-02-16T03:37:49.544Z,-2.98
2023-02-16T03:40:30.081Z,-2.68
2023-02-16T03:43:00.179Z,-2.67
2023-02-16T03:45:27.743Z,-2.73
2023-02-16T03:47:55.071Z,-2.88
2023-02-16T03:50:22.374Z,-2.81
2023-02-16T03:52:49.406Z,-2.91
2023-02-16T03:55:16.577Z,-3.00
2023-02-16T03:57:43.327Z,-2.93
2023-02-16T04:00:11.269Z,-2.95
2023-02-16T04:02:38.086Z,-3.05
2023-02-16T04:05:05.125Z,-2.87
2023-02-16T04:07:31.985Z,-2.72
2023-02-16T04:09:58.867Z,-2.90
2023-02-16T04:12:37.572Z,-2.88
2023-02-16T04:15:14.836Z,-2.76
2023-02-16T04:17:41.652Z,-2.92
2023-02-16T04:20:13.545Z,-2.74
2023-02-16T04:22:40.423Z,-3.13
2023-02-16T04:25:08.752Z,-2.84
2023-02-16T04:27:36.980Z,-2.71
2023-02-16T04:30:06.170Z,-2.78
2023-02-16T04:32:33.089Z,-2.91
2023-02-16T04:34:59.999Z,-2.81
2023-02-16T04:37:26.777Z,-2.85
2023-02-16T04:39:53.609Z,-2.99
2023-02-16T04:42:20.525Z,-2.92
2023-02-16T04:44:47.283Z,-3.08
2023-02-16T04:47:14.458Z,-3.13
2023-02-16T04:49:41.211Z,-3.10
2023-02-16T04:52:08.268Z,-3.02
2023-02-16T04:54:35.390Z,-3.12
2023-02-16T04:57:02.205Z,-3.03
2023-02-16T04:59:28.987Z,-3.09
2023-02-16T05:01:55.817Z,-3.06
2023-02-16T05:04:22.570Z,-3.11
2023-02-16T05:06:49.368Z,-2.98
2023-02-16T05:09:16.414Z,-3.05
2023-02-16T05:12:01.715Z,-3.09
2023-02-16T05:14:47.626Z,-3.13
2023-02-16T05:17:22.510Z,-3.14
2023-02-16T05:19:58.980Z,-3.03
2023-02-16T05:22:26.602Z,-2.98
2023-02-16T05:24:53.387Z,-3.27
2023-02-16T05:27:27.220Z,-3.01
2023-02-16T05:29:54.405Z,-2.91
2023-02-16T05:32:21.691Z,-3.01
2023-02-16T05:34:48.606Z,-3.08
2023-02-16T05:37:17.937Z,-3.18
2023-02-16T05:39:45.460Z,-3.13
2023-02-16T05:42:13.084Z,-3.12
2023-02-16T05:44:40.015Z,-3.23
2023-02-16T05:47:07.057Z,-3.25
2023-02-16T05:49:33.829Z,-3.29
2023-02-16T05:52:00.576Z,-3.29
2023-02-16T05:54:28.185Z,-3.34
2023-02-16T05:56:55.193Z,-3.29
2023-02-16T05:59:22.237Z,-3.23
2023-02-16T06:01:51.851Z,-3.44
2023-02-16T06:04:20.237Z,-3.17
2023-02-16T06:06:47.084Z,-3.27
2023-02-16T06:09:13.840Z,-3.29
2023-02-16T06:11:40.958Z,-3.48
2023-02-16T06:14:17.029Z,-3.51
2023-02-16T06:16:47.623Z,-3.49
2023-02-16T06:19:16.580Z,-3.40
2023-02-16T06:21:44.094Z,-3.42
2023-02-16T06:24:13.316Z,-3.38
2023-02-16T06:26:41.169Z,-3.38
2023-02-16T06:29:09.364Z,-3.49
2023-02-16T06:31:37.004Z,-3.60
2023-02-16T06:34:05.024Z,-3.41
2023-02-16T06:36:32.852Z,-3.40
2023-02-16T06:38:59.721Z,-3.38
2023-02-16T06:41:32.379Z,-3.40
2023-02-16T06:44:05.947Z,-3.44
2023-02-16T06:46:33.343Z,-3.58
2023-02-16T06:49:00.422Z,-3.57
2023-02-16T06:51:27.975Z,-3.52
2023-02-16T06:53:54.957Z,-3.53
2023-02-16T06:56:22.402Z,-3.61
2023-02-16T06:58:49.542Z,-3.55
2023-02-16T07:01:23.095Z,-3.54
2023-02-16T07:03:52.128Z,-3.67
2023-02-16T07:06:20.434Z,-3.53
2023-02-16T07:08:47.565Z,-3.51
2023-02-16T07:11:14.754Z,-3.53
2023-02-16T07:13:41.673Z,-3.65
2023-02-16T07:16:08.507Z,-3.90
2023-02-16T07:18:36.077Z,-3.64
2023-02-16T07:21:03.197Z,-3.68
2023-02-16T07:23:30.386Z,-3.73
2023-02-16T07:25:57.117Z,-3.71
2023-02-16T07:28:24.577Z,-3.68
2023-02-16T07:30:51.670Z,-3.68
2023-02-16T07:33:19.040Z,-3.68
2023-02-16T07:35:45.865Z,-3.67
2023-02-16T07:38:13.165Z,-3.60
2023-02-16T07:40:39.968Z,-3.81
2023-02-16T07:43:06.896Z,-3.58
2023-02-16T07:45:34.245Z,-3.75
2023-02-16T07:48:02.334Z,-3.66
2023-02-16T07:50:29.181Z,-3.80
2023-02-16T07:52:55.983Z,-3.45
2023-02-16T07:55:22.842Z,-3.55
2023-02-16T07:57:52.955Z,-3.88
2023-02-16T08:00:20.605Z,-3.55
2023-02-16T08:02:47.468Z,-3.32
2023-02-16T08:05:14.385Z,-3.31
2023-02-16T08:07:41.965Z,-3.10
2023-02-16T08:10:09.656Z,-2.93
2023-02-16T08:12:37.498Z,-2.78
2023-02-16T08:15:04.905Z,-2.69
2023-02-16T08:17:31.778Z,-2.52
2023-02-16T08:19:58.547Z,-2.49
2023-02-16T08:22:25.622Z,-2.25
2023-02-16T08:24:54.051Z,-2.17
2023-02-16T08:27:21.430Z,-1.98
2023-02-16T08:29:48.205Z,-1.85
2023-02-16T08:32:15.145Z,-1.63
2023-02-16T08:34:43.497Z,-1.59
2023-02-16T08:37:13.053Z,-1.22
2023-02-16T08:39:40.207Z,-0.95
2023-02-16T08:42:07.122Z,-0.83
2023-02-16T08:44:34.287Z,-0.74
2023-02-16T08:47:01.571Z,-0.55
2023-02-16T08:49:28.658Z,-0.32
2023-02-16T08:51:58.779Z,-0.08
2023-02-16T08:54:30.405Z,0.27
2023-02-16T08:56:59.116Z,0.34
2023-02-16T08:59:28.635Z,0.43
2023-02-16T09:01:58.323Z,0.61
2023-02-16T09:04:27.630Z,0.84
2023-02-16T09:06:54.861Z,1.07
2023-02-16T09:09:21.941Z,1.36
2023-02-16T09:11:49.615Z,1.54
2023-02-16T09:14:19.364Z,1.71
2023-02-16T09:16:46.589Z,1.84
2023-02-16T09:19:17.483Z,2.07
2023-02-16T09:21:45.230Z,2.26
2023-02-16T09:24:11.993Z,2.63
2023-02-16T09:26:42.677Z,2.83
2023-02-16T09:29:12.585Z,3.08
2023-02-16T09:31:40.527Z,3.26
2023-02-16T09:34:19.233Z,3.54
2023-02-16T09:36:47.415Z,3.66
2023-02-16T09:39:14.906Z,3.91
2023-02-16T09:41:41.628Z,4.18
2023-02-16T09:44:38.105Z,4.50
2023-02-16T09:47:22.252Z,4.78
2023-02-16T09:49:49.731Z,4.97
2023-02-16T09:52:40.467Z,5.18
2023-02-16T09:55:20.825Z,5.33
2023-02-16T09:58:13.073Z,5.59
2023-02-16T10:00:57.602Z,5.84
2023-02-16T10:04:01.210Z,5.84
2023-02-16T10:06:34.341Z,6.18
2023-02-16T10:09:11.954Z,6.34
2023-02-16T10:11:46.924Z,6.52
2023-02-16T10:14:25.768Z,6.70
2023-02-16T10:17:20.736Z,6.83
2023-02-16T10:19:57.486Z,6.95
2023-02-16T10:22:38.685Z,7.17
2023-02-16T10:25:14.072Z,7.36
2023-02-16T10:27:45.825Z,7.64
2023-02-16T10:30:23.277Z,7.77
2023-02-16T10:33:15.920Z,8.08
2023-02-16T10:35:53.868Z,8.36
2023-02-16T10:38:49.595Z,8.51
2023-02-16T10:41:37.355Z,8.71
2023-02-16T10:44:31.973Z,8.75
2023-02-16T10:47:04.585Z,8.91
2023-02-16T10:49:33.226Z,9.11
2023-02-16T10:52:03.020Z,9.13
2023-02-16T10:54:32.580Z,9.46
2023-02-16T10:57:07.137Z,9.54
2023-02-16T10:59:43.389Z,9.92
2023-02-16T11:02:29.068Z,10.18
2023-02-16T11:04:58.298Z,10.49
2023-02-16T11:07:28.567Z,10.68
2023-02-16T11:10:04.234Z,10.71
2023-02-16T11:12:36.077Z,10.87
2023-02-16T11:15:07.234Z,11.01
2023-02-16T11:17:52.663Z,11.16
2023-02-16T11:20:45.885Z,11.31
2023-02-16T11:23:37.774Z,11.46
2023-02-16T11:26:10.284Z,11.56
2023-02-16T11:28:41.079Z,11.63
2023-02-16T11:31:27.731Z,11.73
2023-02-16T11:33:58.252Z,11.80
2023-02-16T11:36:33.606Z,11.84
2023-02-16T11:39:18.395Z,11.88
2023-02-16T11:42:05.517Z,12.00
2023-02-16T11:44:38.434Z,12.08
2023-02-16T11:47:31.961Z,12.08
2023-02-16T11:50:19.405Z,12.23
2023-02-16T11:52:52.905Z,12.20
2023-02-16T11:55:36.103Z,12.39
2023-02-16T11:58:17.925Z,12.45
2023-02-16T12:01:08.661Z,12.53
2023-02-16T12:04:03.748Z,12.73
2023-02-16T12:07:03.952Z,12.79
2023-02-16T12:09:57.600Z,12.85
2023-02-16T12:12:59.611Z,12.93
2023-02-16T12:16:12.801Z,13.23
2023-02-16T12:18:57.605Z,13.34
2023-02-16T12:21:37.963Z,13.27
2023-02-16T12:24:48.244Z,13.26
2023-02-16T12:27:39.963Z,12.94
2023-02-16T12:30:34.556Z,12.99
2023-02-16T12:33:08.164Z,12.89
2023-02-16T12:36:11.046Z,12.94
2023-02-16T12:39:08.491Z,12.78
2023-02-16T12:41:56.662Z,12.83
2023-02-16T12:44:46.170Z,12.93
2023-02-16T12:47:35.381Z,12.84
2023-02-16T12:50:05.115Z,13.17
2023-02-16T12:52:41.982Z,13.25
2023-02-16T12:55:51.171Z,13.28
2023-02-16T12:58:33.961Z,13.31
2023-02-16T13:01:30.398Z,13.33
2023-02-16T13:03:59.629Z,13.26
2023-02-16T13:06:41.188Z,13.18
2023-02-16T13:09:34.205Z,13.39
2023-02-16T13:12:50.315Z,13.49
2023-02-16T13:15:28.168Z,13.57
2023-02-16T13:18:18.530Z,13.64
2023-02-16T13:20:51.035Z,13.61
2023-02-16T13:23:41.957Z,13.83
2023-02-16T13:26:42.205Z,13.59
2023-02-16T13:29:26.810Z,13.44
2023-02-16T13:32:25.344Z,13.52
2023-02-16T13:35:30.166Z,13.42
2023-02-16T13:38:24.487Z,13.57
2023-02-16T13:41:20.074Z,13.82
2023-02-16T13:43:56.250Z,13.88
2023-02-16T13:46:38.572Z,14.09
2023-02-16T13:49:06.683Z,14.17
2023-02-16T13:51:46.374Z,14.15
2023-02-16T13:54:28.773Z,14.25
2023-02-16T13:56:56.144Z,14.35
2023-02-16T13:59:22.818Z,14.31
2023-02-16T14:01:54.998Z,14.30
2023-02-16T14:04:27.373Z,14.22
2023-02-16T14:07:03.268Z,14.09
2023-02-16T14:09:38.906Z,14.03
2023-02-16T14:12:16.975Z,13.91
2023-02-16T14:14:43.635Z,13.89
2023-02-16T14:17:19.439Z,13.97
2023-02-16T14:19:58.334Z,13.98
2023-02-16T14:22:49.656Z,14.11
2023-02-16T14:25:22.477Z,14.09
2023-02-16T14:27:54.258Z,14.22
2023-02-16T14:30:35.788Z,14.23
2023-02-16T14:33:17.116Z,14.19
2023-02-16T14:36:00.528Z,14.13
2023-02-16T14:38:36.046Z,13.89
2023-02-16T14:41:08.893Z,13.66
2023-02-16T14:43:45.797Z,13.39
2023-02-16T14:46:42.979Z,13.25
2023-02-16T14:49:38.872Z,13.20
2023-02-16T14:52:47.568Z,13.01
2023-02-16T14:55:54.388Z,13.02
2023-02-16T14:58:41.491Z,12.74
2023-02-16T15:01:19.174Z,12.72
2023-02-16T15:03:54.786Z,12.58
2023-02-16T15:06:53.910Z,12.51
2023-02-16T15:09:26.297Z,12.08
2023-02-16T15:12:16.628Z,12.28
2023-02-16T15:14:47.341Z,12.27
2023-02-16T15:17:36.784Z,12.16
2023-02-16T15:20:34.289Z,12.04
2023-02-16T15:23:08.028Z,11.89
2023-02-16T15:25:40.823Z,11.76
2023-02-16T15:28:10.681Z,11.69
2023-02-16T15:30:41.794Z,11.64
2023-02-16T15:33:42.938Z,11.58
2023-02-16T15:36:16.389Z,11.49
2023-02-16T15:38:57.332Z,11.23
2023-02-16T15:41:54.770Z,11.23
2023-02-16T15:44:36.489Z,11.12
2023-02-16T15:47:27.287Z,11.08
2023-02-16T15:49:54.726Z,10.75
2023-02-16T15:52:34.084Z,10.88
2023-02-16T15:55:03.347Z,10.78
2023-02-16T15:57:36.807Z,10.61
2023-02-16T16:00:15.901Z,10.66
2023-02-16T16:02:50.404Z,10.71
2023-02-16T16:05:26.655Z,10.58
2023-02-16T16:07:55.305Z,10.42
2023-02-16T16:10:29.278Z,10.35
2023-02-16T16:13:09.011Z,10.31
2023-02-16T16:15:42.653Z,10.09
2023-02-16T16:18:39.219Z,9.86
2023-02-16T16:21:21.612Z,10.02
2023-02-16T16:24:04.476Z,10.01
2023-02-16T16:26:51.193Z,9.93
2023-02-16T16:29:48.047Z,9.83
2023-02-16T16:32:25.185Z,9.81
2023-02-16T16:34:52.248Z,9.73
2023-02-16T16:37:37.418Z,9.68
2023-02-16T16:40:31.013Z,9.49
2023-02-16T16:43:03.351Z,9.46
2023-02-16T16:45:45.272Z,9.46
2023-02-16T16:48:25.702Z,9.38
2023-02-16T16:51:12.210Z,9.40
2023-02-16T16:53:43.429Z,9.31
2023-02-16T16:56:14.423Z,9.24
2023-02-16T16:58:41.821Z,8.96
2023-02-16T17:01:11.523Z,8.83
2023-02-16T17:03:38.329Z,8.87
2023-02-16T17:06:06.901Z,8.90
2023-02-16T17:12:22.371Z,8.72
2023-02-16T17:14:49.273Z,8.82
2023-02-16T17:17:16.015Z,8.63
2023-02-16T17:19:42.824Z,8.69
2023-02-16T17:22:17.851Z,8.65
2023-02-16T17:24:45.106Z,8.53
2023-02-16T17:27:12.508Z,8.25
2023-02-16T17:29:42.802Z,8.39
2023-02-16T17:32:09.802Z,8.31
2023-02-16T17:34:36.594Z,8.27
2023-02-16T17:37:09.171Z,8.28
2023-02-16T17:39:36.399Z,8.06
2023-02-16T17:42:03.319Z,8.11
2023-02-16T17:44:30.171Z,7.97
2023-02-16T17:46:57.043Z,7.90
2023-02-16T17:49:23.961Z,7.77
2023-02-16T17:51:50.755Z,7.83
2023-02-16T17:54:17.615Z,7.74
2023-02-16T17:56:45.883Z,7.80
2023-02-16T17:59:17.622Z,7.74
2023-02-16T18:01:45.193Z,7.65
2023-02-16T18:04:12.186Z,7.60
2023-02-16T18:06:38.997Z,7.41
2023-02-16T18:09:05.812Z,7.49
2023-02-16T18:11:32.552Z,7.37
2023-02-16T18:13:59.304Z,7.34
2023-02-16T18:16:28.001Z,7.40
2023-02-16T18:18:55.282Z,7.35
2023-02-16T18:21:22.026Z,7.32
2023-02-16T18:23:48.790Z,7.31
2023-02-16T18:26:16.665Z,7.16
2023-02-16T18:28:44.095Z,7.33
2023-02-16T18:31:11.919Z,7.26
2023-02-16T18:33:38.773Z,7.09
2023-02-16T18:36:06.226Z,7.16
2023-02-16T18:38:33.400Z,6.90
2023-02-16T18:41:00.172Z,6.96
2023-02-16T18:43:26.949Z,6.91
2023-02-16T18:45:53.857Z,6.93
2023-02-16T18:48:21.811Z,6.96
2023-02-16T18:50:48.827Z,6.86
2023-02-16T18:53:15.629Z,6.91
2023-02-16T18:55:42.417Z,6.91
2023-02-16T18:58:12.780Z,6.95
2023-02-16T19:00:39.644Z,6.86
2023-02-16T19:03:06.663Z,6.65
2023-02-16T19:05:34.196Z,6.49
2023-02-16T19:08:00.970Z,6.49
2023-02-16T19:11:18.247Z,6.53
2023-02-16T19:13:45.202Z,6.27
2023-02-16T19:16:12.144Z,6.49
2023-02-16T19:18:38.977Z,6.41
2023-02-16T19:21:08.832Z,6.30
2023-02-16T19:23:36.114Z,6.46
2023-02-16T19:26:12.877Z,6.28
2023-02-16T19:28:40.314Z,6.39
2023-02-16T19:31:15.803Z,6.34
2023-02-16T19:33:42.644Z,6.49
2023-02-16T19:36:11.120Z,6.30
2023-02-16T19:38:38.615Z,6.33
2023-02-16T19:41:16.521Z,6.31
2023-02-16T19:43:44.736Z,6.37
2023-02-16T19:46:12.543Z,6.31
2023-02-16T19:48:39.881Z,6.31
2023-02-16T19:51:08.285Z,6.32
2023-02-16T19:53:37.721Z,6.33
2023-02-16T19:56:16.445Z,6.09
2023-02-16T19:58:48.663Z,6.29
2023-02-16T20:01:19.850Z,6.19
2023-02-16T20:04:43.462Z,6.28
2023-02-16T20:07:10.394Z,6.12
2023-02-16T20:09:37.520Z,6.22
2023-02-16T20:12:05.293Z,6.20
2023-02-16T20:14:32.136Z,6.04
2023-02-16T20:16:58.930Z,6.08
2023-02-16T20:19:25.654Z,6.06
2023-02-16T20:21:52.436Z,6.09
2023-02-16T20:24:20.525Z,6.09
2023-02-16T20:26:49.159Z,6.06
2023-02-16T20:29:18.655Z,5.93
2023-02-16T20:31:56.131Z,5.72
2023-02-16T20:34:26.108Z,6.01
2023-02-16T20:36:53.126Z,5.84
2023-02-16T20:39:20.865Z,5.76
2023-02-16T20:41:47.670Z,5.90
2023-02-16T20:44:16.993Z,5.91
2023-02-16T20:46:44.173Z,5.90
2023-02-16T20:49:11.010Z,5.89
2023-02-16T20:51:38.362Z,5.73
2023-02-16T20:54:05.678Z,5.74
2023-02-16T20:56:32.435Z,5.82
2023-02-16T20:58:59.595Z,5.71
2023-02-16T21:01:31.561Z,5.76
2023-02-16T21:04:00.510Z,5.77
2023-02-16T21:06:28.517Z,5.73
2023-02-16T21:08:55.733Z,5.73
2023-02-16T21:11:22.741Z,5.62
2023-02-16T21:13:49.587Z,5.59
2023-02-16T21:16:18.030Z,5.58
2023-02-16T21:18:44.899Z,5.54
2023-02-16T21:21:15.791Z,5.59
2023-02-16T21:23:49.198Z,5.38
2023-02-16T21:26:17.448Z,5.37
2023-02-16T21:28:44.239Z,5.34
2023-02-16T21:31:15.148Z,5.40
2023-02-16T21:33:42.152Z,5.17
2023-02-16T21:36:16.670Z,5.23
2023-02-16T21:38:44.414Z,5.18
2023-02-16T21:41:30.414Z,5.08
2023-02-16T21:44:18.373Z,5.20
2023-02-16T21:46:47.325Z,5.28
2023-02-16T21:49:19.895Z,5.27
2023-02-16T21:51:48.172Z,5.37
2023-02-16T21:54:17.793Z,5.32
2023-02-16T21:56:50.346Z,5.37
2023-02-16T21:59:24.593Z,5.26
2023-02-16T22:01:52.023Z,5.36
2023-02-16T22:04:22.061Z,5.33
2023-02-16T22:06:51.126Z,5.36
2023-02-16T22:09:23.044Z,5.36
2023-02-16T22:11:51.090Z,5.32
2023-02-16T22:14:18.293Z,5.29
2023-02-16T22:16:47.130Z,5.27
2023-02-16T22:19:17.101Z,5.22
2023-02-16T22:21:47.665Z,5.17
2023-02-16T22:24:17.511Z,5.08
2023-02-16T22:26:45.424Z,5.14
2023-02-16T22:29:12.976Z,5.07
2023-02-16T22:31:46.247Z,5.13
2023-02-16T22:34:16.296Z,5.16
2023-02-16T22:36:43.221Z,5.03
2023-02-16T22:39:13.558Z,4.98
2023-02-16T22:41:40.438Z,4.94
2023-02-16T22:44:07.775Z,4.98
2023-02-16T22:46:35.388Z,4.97
2023-02-16T22:49:02.205Z,4.92
2023-02-16T22:51:30.689Z,4.93
2023-02-16T22:54:02.092Z,4.87
2023-02-16T22:56:30.342Z,4.95
2023-02-16T22:58:58.908Z,4.81
2023-02-16T23:01:28.267Z,4.87
2023-02-16T23:03:57.927Z,4.91
2023-02-16T23:06:37.015Z,4.81
2023-02-16T23:09:08.256Z,4.85
2023-02-16T23:11:36.379Z,4.90
2023-02-16T23:14:04.812Z,4.80
2023-02-16T23:16:32.181Z,4.88
2023-02-16T23:18:59.949Z,4.76
2023-02-16T23:21:32.633Z,4.78
2023-02-16T23:24:00.229Z,4.64
2023-02-16T23:26:30.724Z,4.65
2023-02-16T23:29:01.872Z,4.62
2023-02-16T23:31:33.380Z,4.72
2023-02-16T23:34:02.444Z,4.63
2023-02-16T23:36:30.436Z,4.53
2023-02-16T23:39:02.497Z,4.53
2023-02-16T23:41:29.370Z,4.18
2023-02-16T23:43:56.618Z,4.13
2023-02-16T23:46:23.924Z,4.00
2023-02-16T23:48:50.957Z,4.00
2023-02-16T23:51:17.769Z,4.09
2023-02-16T23:53:44.844Z,4.04
2023-02-16T23:56:16.765Z,4.11
2023-02-16T23:58:47.757Z,4.06
